Terminal Aerodrome Forecast
Issued by NWS

Home | Current Version | Previous Version | Text Only | Print | Product List | Glossary On
Versions: 1 2 3 4 5 6 7 8 9 10 11 12 13 14 15 16 17
000
FTUS43 KDLH 162204 AAA
TAFHYR
TAF AMD
KHYR 162204Z 1622/1718 33008KT P6SM VCSH BKN026 OVC035
     FM170300 34010KT P6SM BKN050
     FM171500 36010KT P6SM VCSH BKN025=

USA.gov is the U.S. government's official web portal to all federal, state and local government web resources and services.